createdAt,value
2023-05-12T00:03:57.454Z,9.40
2023-05-12T00:08:59.152Z,9.32
2023-05-12T00:14:01.188Z,9.28
2023-05-12T00:19:02.822Z,9.24
2023-05-12T00:24:05.133Z,9.19
2023-05-12T00:29:06.655Z,9.16
2023-05-12T00:34:08.187Z,9.11
2023-05-12T00:39:10.314Z,9.07
2023-05-12T00:44:12.236Z,9.06
2023-05-12T00:49:14.009Z,9.08
2023-05-12T00:54:16.833Z,9.04
2023-05-12T00:59:18.339Z,8.96
2023-05-12T01:04:19.966Z,8.85
2023-05-12T01:09:21.463Z,8.75
2023-05-12T01:14:22.976Z,8.64
2023-05-12T01:19:50.441Z,8.52
2023-05-12T01:25:01.552Z,8.42
2023-05-12T01:30:05.129Z,8.32
2023-05-12T01:35:07.141Z,8.25
2023-05-12T01:40:09.531Z,8.24
2023-05-12T01:45:11.885Z,8.26
2023-05-12T01:50:13.376Z,8.25
2023-05-12T01:55:14.947Z,8.22
2023-05-12T02:00:17.186Z,8.18
2023-05-12T02:05:18.741Z,8.14
2023-05-12T02:10:20.845Z,8.14
2023-05-12T02:15:22.890Z,8.13
2023-05-12T02:20:24.500Z,8.12
2023-05-12T02:25:26.036Z,8.10
2023-05-12T02:30:33.947Z,8.07
2023-05-12T02:35:35.446Z,8.03
2023-05-12T02:40:36.956Z,8.00
2023-05-12T02:45:39.528Z,7.96
2023-05-12T02:50:41.079Z,7.92
2023-05-12T02:55:42.768Z,7.92
2023-05-12T03:00:48.699Z,7.93
2023-05-12T03:05:53.681Z,7.96
2023-05-12T03:10:55.260Z,8.01
2023-05-12T03:16:01.213Z,8.10
2023-05-12T03:21:03.648Z,8.62
2023-05-12T03:26:05.169Z,9.73
2023-05-12T03:31:06.709Z,11.14
2023-05-12T03:36:08.792Z,12.61
2023-05-12T03:41:10.294Z,14.23
2023-05-12T03:46:12.102Z,15.27
2023-05-12T03:51:13.654Z,14.49
2023-05-12T03:56:15.747Z,12.76
2023-05-12T04:01:17.260Z,11.58
2023-05-12T04:06:18.803Z,10.93
2023-05-12T04:11:24.602Z,10.56
2023-05-12T04:16:26.132Z,10.39
2023-05-12T04:21:42.256Z,10.31
2023-05-12T04:26:43.828Z,10.29
2023-05-12T04:31:45.323Z,10.37
2023-05-12T04:36:47.043Z,10.43
2023-05-12T04:41:48.627Z,10.54
2023-05-12T04:46:53.470Z,10.74
2023-05-12T04:51:55.290Z,10.85
2023-05-12T04:56:56.821Z,11.03
2023-05-12T05:01:58.592Z,11.20
2023-05-12T05:07:00.456Z,11.34
2023-05-12T05:12:02.104Z,11.48
2023-05-12T05:17:03.811Z,11.58
2023-05-12T05:22:05.440Z,11.68
2023-05-12T05:27:06.977Z,11.82
2023-05-12T05:32:08.559Z,11.96
2023-05-12T05:37:10.029Z,12.14
2023-05-12T05:42:13.001Z,12.32
2023-05-12T05:47:14.520Z,12.46
2023-05-12T05:52:16.078Z,12.55
2023-05-12T05:57:17.566Z,12.67
2023-05-12T06:02:19.316Z,12.73
2023-05-12T06:07:22.196Z,12.86
2023-05-12T06:12:23.912Z,13.01
2023-05-12T06:17:25.509Z,13.17
2023-05-12T06:22:27.959Z,13.34
2023-05-12T06:27:29.591Z,13.49
2023-05-12T06:32:31.259Z,13.60
2023-05-12T06:37:32.800Z,13.75
2023-05-12T06:42:34.321Z,13.91
2023-05-12T06:47:36.182Z,14.10
2023-05-12T06:52:37.751Z,14.23
2023-05-12T06:57:39.260Z,14.36
2023-05-12T07:02:41.415Z,14.54
2023-05-12T07:07:42.923Z,14.70
2023-05-12T07:12:44.564Z,14.87
2023-05-12T07:17:46.187Z,15.04
2023-05-12T07:22:48.218Z,15.14
2023-05-12T07:27:50.411Z,15.27
2023-05-12T07:32:53.216Z,15.38
2023-05-12T07:37:54.773Z,15.53
2023-05-12T07:42:56.352Z,15.61
2023-05-12T07:47:57.949Z,15.69
2023-05-12T07:52:59.628Z,15.79
2023-05-12T07:58:01.381Z,15.89
2023-05-12T08:03:03.115Z,15.99
2023-05-12T08:08:05.162Z,16.08
2023-05-12T08:13:06.697Z,16.14
2023-05-12T08:18:08.379Z,16.21
2023-05-12T08:23:10.146Z,16.32
2023-05-12T08:28:13.060Z,16.37
2023-05-12T08:33:14.594Z,16.42
2023-05-12T08:38:16.647Z,16.51
2023-05-12T08:43:26.298Z,16.52
2023-05-12T08:48:29.355Z,16.60
2023-05-12T08:53:33.500Z,16.67
2023-05-12T08:58:42.113Z,16.72
2023-05-12T09:03:44.507Z,16.80
2023-05-12T09:08:46.156Z,16.86
2023-05-12T09:13:50.675Z,16.87
2023-05-12T09:18:57.645Z,16.92
2023-05-12T09:24:07.200Z,16.90
2023-05-12T09:29:08.885Z,16.95
2023-05-12T09:34:10.639Z,17.08
2023-05-12T09:39:13.037Z,17.19
2023-05-12T09:44:19.155Z,17.32
2023-05-12T09:49:20.875Z,17.43
2023-05-12T09:54:31.024Z,17.44
2023-05-12T09:59:34.431Z,17.45
2023-05-12T10:04:51.124Z,17.47
2023-05-12T10:09:56.607Z,17.52
2023-05-12T10:15:02.354Z,17.53
2023-05-12T10:20:07.634Z,17.56
2023-05-12T10:25:09.846Z,17.62
2023-05-12T10:30:12.343Z,17.75
2023-05-12T10:35:15.269Z,17.84
2023-05-12T10:40:26.750Z,17.93
2023-05-12T10:45:28.467Z,18.01
2023-05-12T10:50:30.583Z,18.15
2023-05-12T10:55:42.891Z,18.24
2023-05-12T11:00:47.960Z,18.25
2023-05-12T11:06:07.239Z,18.31
2023-05-12T11:11:09.198Z,18.38
2023-05-12T11:16:13.503Z,18.47
2023-05-12T11:21:15.161Z,18.60
2023-05-12T11:26:20.071Z,18.69
2023-05-12T11:31:22.737Z,18.70
2023-05-12T11:36:24.347Z,18.72
2023-05-12T11:41:26.466Z,18.73
2023-05-12T11:46:32.021Z,18.78
2023-05-12T11:51:33.909Z,18.70
2023-05-12T11:56:35.533Z,18.70
2023-05-12T12:01:46.644Z,18.83
2023-05-12T12:06:48.365Z,19.04
2023-05-12T12:11:49.844Z,19.13
2023-05-12T12:16:51.321Z,19.27
2023-05-12T12:21:53.016Z,19.33
2023-05-12T12:26:54.554Z,19.34
2023-05-12T12:31:56.124Z,19.25
2023-05-12T12:36:57.626Z,19.35
2023-05-12T12:41:59.201Z,19.26
2023-05-12T12:47:00.747Z,19.35
2023-05-12T12:52:02.292Z,19.50
2023-05-12T12:57:04.652Z,19.54
2023-05-12T13:02:06.975Z,19.56
2023-05-12T13:07:08.789Z,19.61
2023-05-12T13:12:10.370Z,19.81
2023-05-12T13:17:12.218Z,19.91
2023-05-12T13:22:13.724Z,19.89
2023-05-12T13:27:15.208Z,19.88
2023-05-12T13:32:17.252Z,19.91
2023-05-12T13:37:18.842Z,20.12
2023-05-12T13:42:22.410Z,20.45
2023-05-12T13:47:23.903Z,20.65
2023-05-12T13:52:25.420Z,20.88
2023-05-12T13:57:26.893Z,21.22
2023-05-12T14:02:28.461Z,21.33
2023-05-12T14:07:30.042Z,21.49
2023-05-12T14:12:31.530Z,21.54
2023-05-12T14:17:33.137Z,21.61
2023-05-12T14:22:34.729Z,21.49
2023-05-12T14:27:36.265Z,21.32
2023-05-12T14:32:37.900Z,21.53
2023-05-12T14:37:39.676Z,21.74
2023-05-12T14:42:42.321Z,21.82
2023-05-12T14:47:44.509Z,21.90
2023-05-12T14:52:46.426Z,22.16
2023-05-12T14:57:49.475Z,22.25
2023-05-12T15:02:51.116Z,22.40
2023-05-12T15:07:52.960Z,22.67
2023-05-12T15:12:54.432Z,22.91
2023-05-12T15:17:55.964Z,22.78
2023-05-12T15:22:57.469Z,21.99
2023-05-12T15:27:59.028Z,21.35
2023-05-12T15:33:04.041Z,20.81
2023-05-12T15:38:06.518Z,20.29
2023-05-12T15:43:08.587Z,20.01
2023-05-12T15:48:10.831Z,19.74
2023-05-12T15:53:12.698Z,19.47
2023-05-12T15:58:15.284Z,19.32
2023-05-12T16:03:16.881Z,19.07
2023-05-12T16:08:18.768Z,18.94
2023-05-12T16:13:20.309Z,18.74
2023-05-12T16:18:21.864Z,18.61
2023-05-12T16:23:24.470Z,18.66
2023-05-12T16:28:26.277Z,18.65
2023-05-12T16:33:27.829Z,19.01
2023-05-12T16:38:32.463Z,19.01
2023-05-12T16:43:34.256Z,19.20
2023-05-12T16:48:36.388Z,19.38
2023-05-12T16:53:38.640Z,19.59
2023-05-12T16:58:40.648Z,19.75
2023-05-12T17:03:42.981Z,19.86
2023-05-12T17:08:45.028Z,19.85
2023-05-12T17:13:46.805Z,19.74
2023-05-12T17:23:53.853Z,19.31
2023-05-12T17:28:56.077Z,19.03
2023-05-12T17:33:57.675Z,18.77
2023-05-12T17:38:59.345Z,18.46
2023-05-12T17:44:00.939Z,18.15
2023-05-12T17:49:02.509Z,17.88
2023-05-12T17:54:04.080Z,17.60
2023-05-12T17:59:05.686Z,17.33
2023-05-12T18:04:07.156Z,17.07
2023-05-12T18:09:08.756Z,16.81
2023-05-12T18:14:10.831Z,16.52
2023-05-12T18:19:12.719Z,16.29
2023-05-12T18:24:14.663Z,16.09
2023-05-12T18:29:16.188Z,15.81
2023-05-12T18:34:17.801Z,15.50
2023-05-12T18:39:19.338Z,15.23
2023-05-12T18:44:21.049Z,15.00
2023-05-12T18:49:22.826Z,14.78
2023-05-12T18:54:24.406Z,14.60
2023-05-12T18:59:25.996Z,14.43
2023-05-12T19:04:27.564Z,14.27
2023-05-12T19:09:29.194Z,14.09
2023-05-12T19:14:31.127Z,13.91
2023-05-12T19:19:32.660Z,13.75
2023-05-12T19:24:34.277Z,13.60
2023-05-12T19:29:35.794Z,13.47
2023-05-12T19:34:37.628Z,13.31
2023-05-12T19:39:39.205Z,13.15
2023-05-12T19:44:40.700Z,13.07
2023-05-12T19:49:42.332Z,13.02
2023-05-12T19:54:44.367Z,12.98
2023-05-12T19:59:45.843Z,12.86
2023-05-12T20:04:47.455Z,12.80
2023-05-12T20:09:48.952Z,12.76
2023-05-12T20:14:50.509Z,12.75
2023-05-12T20:19:52.100Z,12.68
2023-05-12T20:24:53.647Z,12.55
2023-05-12T20:29:55.128Z,12.36
2023-05-12T20:34:56.645Z,12.25
2023-05-12T20:39:58.234Z,12.24
2023-05-12T20:45:00.015Z,12.13
2023-05-12T20:50:05.619Z,12.07
2023-05-12T20:55:08.985Z,12.11
2023-05-12T21:00:11.027Z,12.13
2023-05-12T21:05:12.634Z,12.16
2023-05-12T21:10:14.164Z,12.12
2023-05-12T21:15:15.866Z,12.08
2023-05-12T21:20:17.474Z,12.11
2023-05-12T21:25:19.175Z,12.11
2023-05-12T21:30:24.491Z,12.05
2023-05-12T21:35:26.753Z,12.03
2023-05-12T21:40:29.234Z,11.94
2023-05-12T21:45:30.782Z,11.83
2023-05-12T21:50:32.284Z,11.72
2023-05-12T21:55:33.887Z,11.56
2023-05-12T22:00:41.592Z,11.51
2023-05-12T22:05:44.810Z,11.46
2023-05-12T22:10:46.831Z,11.51
2023-05-12T22:15:48.449Z,11.50
2023-05-12T22:20:50.125Z,11.46
2023-05-12T22:25:51.650Z,11.38
2023-05-12T22:30:53.981Z,11.32
2023-05-12T22:35:58.943Z,11.25
2023-05-12T22:41:00.933Z,11.18
2023-05-12T22:46:02.462Z,11.11
2023-05-12T22:51:04.019Z,10.99
2023-05-12T22:56:06.325Z,10.84
2023-05-12T23:01:07.876Z,10.68
2023-05-12T23:06:09.397Z,10.60
2023-05-12T23:11:12.830Z,10.58
2023-05-12T23:16:14.359Z,10.64
2023-05-12T23:21:15.871Z,10.65
2023-05-12T23:26:17.330Z,10.64
2023-05-12T23:31:18.899Z,10.64
2023-05-12T23:36:20.461Z,10.65
2023-05-12T23:41:25.681Z,10.66
2023-05-12T23:46:27.296Z,10.67
2023-05-12T23:51:29.105Z,10.66
2023-05-12T23:56:30.837Z,10.63
